Terminal Aerodrome Forecast
Issued by NWS

Home | Current Version | Previous Version | Text Only | Print | Product List | Glossary On
Versions: 1 2 3 4 5 6 7 8 9 10 11 12
670
FTUS46 KSTO 040537
TAFSAC
TAF
KSAC 040537Z 0406/0506 VRB04KT P6SM SKC
      TEMPO 0406/0409 4SM BR
     FM041000 VRB03KT 3SM BR FEW250
      TEMPO 0412/0416 1/2SM FG OVC002
     FM041700 VRB04KT P6SM BKN250=

USA.gov is the U.S. government's official web portal to all federal, state and local government web resources and services.